Time;durP1;ratioP1;P1;durP2;ratioP2;P2;SDS_P1;SDS_P2;PMS_P1;PMS_P2;Temp;Humidity;BMP_temperature;BMP_pressure;BME280_temperature;BME280_humidity;BME280_pressure;Samples;Min_cycle;Max_cycle;Signal;HPM_P1;HPM_P2
2023/04/09 05:02:13;;;;;;;;;43.50;35.50;;;;;;;;5070269;22;1136925;-54
2023/04/09 05:04:38;;;;;;;;;48.75;38.50;;;;;;;;4979151;28;46009;-55
2023/04/09 05:07:03;;;;;;;;;49.25;37.50;;;;;;;;4976252;28;45535;-54
2023/04/09 05:09:29;;;;;;;;;53.00;43.00;;;;;;;;4999870;28;45484;-55
2023/04/09 05:11:54;;;;;;;;;53.00;43.00;;;;;;;;5000728;28;45471;-55
2023/04/09 05:14:20;;;;;;;;;49.25;38.50;;;;;;;;5000886;28;45404;-54
2023/04/09 05:16:45;;;;;;;;;44.50;38.50;;;;;;;;4994864;28;45414;-54
2023/04/09 05:19:10;;;;;;;;;52.50;40.50;;;;;;;;4991784;28;45965;-55
2023/04/09 05:21:36;;;;;;;;;45.75;36.75;;;;;;;;4977517;28;45581;-55
2023/04/09 05:24:01;;;;;;;;;53.50;41.00;;;;;;;;4992135;28;46561;-53
2023/04/09 05:26:26;;;;;;;;;50.75;39.50;;;;;;;;4998288;28;45568;-54
2023/04/09 05:28:51;;;;;;;;;47.00;38.75;;;;;;;;4999719;28;45530;-54
2023/04/09 05:31:17;;;;;;;;;50.50;40.75;;;;;;;;4999251;28;45463;-54
2023/04/09 05:33:42;;;;;;;;;55.25;40.75;;;;;;;;4988533;28;45466;-54
2023/04/09 05:36:07;;;;;;;;;50.25;42.00;;;;;;;;4998152;28;45398;-54
2023/04/09 05:38:33;;;;;;;;;57.25;44.00;;;;;;;;5001543;28;45613;-54
2023/04/09 05:40:59;;;;;;;;;53.00;40.00;;;;;;;;4983297;28;45377;-53
2023/04/09 05:43:24;;;;;;;;;51.25;38.25;;;;;;;;5000858;28;46050;-53
2023/04/09 05:45:49;;;;;;;;;54.50;45.00;;;;;;;;4996458;28;45321;-54
2023/04/09 05:48:17;;;;;;;;;52.75;42.00;;;;;;;;4994534;28;46309;-54
2023/04/09 05:50:47;;;;;;;;;49.50;35.75;;;;;;;;4999937;28;45459;-55
2023/04/09 05:53:13;;;;;;;;;54.25;43.75;;;;;;;;4990201;28;45344;-53
2023/04/09 05:55:38;;;;;;;;;55.00;43.25;;;;;;;;5000988;28;45421;-54
2023/04/09 05:58:03;;;;;;;;;47.00;39.50;;;;;;;;4998662;28;45507;-54
2023/04/09 06:00:28;;;;;;;;;58.50;41.75;;;;;;;;5000922;28;45255;-54
2023/04/09 06:02:53;;;;;;;;;58.00;44.75;;;;;;;;4992609;28;46343;-53
2023/04/09 06:05:19;;;;;;;;;51.50;41.75;;;;;;;;4995841;28;45455;-55
2023/04/09 06:07:44;;;;;;;;;54.00;44.75;;;;;;;;4997849;28;45435;-54
2023/04/09 06:10:09;;;;;;;;;58.25;43.50;;;;;;;;4999236;28;45375;-56
2023/04/09 06:12:35;;;;;;;;;51.25;41.25;;;;;;;;4999634;28;46879;-54
2023/04/09 06:15:00;;;;;;;;;53.75;43.00;;;;;;;;4996023;28;45402;-55
2023/04/09 06:17:25;;;;;;;;;58.75;45.00;;;;;;;;4997714;28;45401;-55
2023/04/09 06:19:50;;;;;;;;;50.75;39.25;;;;;;;;5001093;28;45270;-55
2023/04/09 06:22:15;;;;;;;;;54.50;41.75;;;;;;;;4997136;28;45640;-55
2023/04/09 06:24:40;;;;;;;;;51.25;41.50;;;;;;;;5000164;28;45290;-54
2023/04/09 06:27:06;;;;;;;;;52.50;41.25;;;;;;;;4997228;28;45338;-54
2023/04/09 06:29:31;;;;;;;;;55.75;41.50;;;;;;;;4996215;28;45688;-52
2023/04/09 06:31:57;;;;;;;;;51.50;41.25;;;;;;;;4996437;28;45978;-50
2023/04/09 06:34:22;;;;;;;;;50.50;41.00;;;;;;;;4999217;28;45305;-54
2023/04/09 06:36:47;;;;;;;;;50.50;40.25;;;;;;;;4997978;28;45209;-54
2023/04/09 06:39:12;;;;;;;;;55.00;43.25;;;;;;;;4999629;28;45214;-53
2023/04/09 06:41:37;;;;;;;;;53.50;41.50;;;;;;;;5000105;28;45346;-54
2023/04/09 06:44:03;;;;;;;;;46.00;39.00;;;;;;;;4971896;28;45378;-52
2023/04/09 06:46:28;;;;;;;;;54.00;42.50;;;;;;;;4996310;28;45492;-54
2023/04/09 06:48:53;;;;;;;;;47.00;39.25;;;;;;;;4993175;28;45546;-55
2023/04/09 06:51:18;;;;;;;;;42.00;35.25;;;;;;;;4999206;28;46100;-54
2023/04/09 06:53:44;;;;;;;;;49.00;39.50;;;;;;;;4997357;28;45281;-55
2023/04/09 06:56:09;;;;;;;;;48.33;40.67;;;;;;;;4997728;28;45404;-54
2023/04/09 06:58:34;;;;;;;;;49.67;39.33;;;;;;;;4992253;28;45408;-55
2023/04/09 07:00:59;;;;;;;;;45.67;38.00;;;;;;;;4989354;28;46085;-54
2023/04/09 07:03:26;;;;;;;;;43.67;38.00;;;;;;;;4988909;28;46441;-54
2023/04/09 07:05:52;;;;;;;;;48.00;36.67;;;;;;;;4988445;28;45567;-56
2023/04/09 07:08:17;;;;;;;;;48.67;38.33;;;;;;;;4989498;28;45419;-55
2023/04/09 07:10:43;;;;;;;;;46.33;37.33;;;;;;;;4980812;28;46909;-56
2023/04/09 07:13:08;;;;;;;;;40.67;35.33;;;;;;;;5001166;28;45415;-56
2023/04/09 07:15:33;;;;;;;;;46.33;37.67;;;;;;;;4996047;28;45528;-56
2023/04/09 07:17:58;;;;;;;;;47.33;37.67;;;;;;;;4986674;28;45500;-56
2023/04/09 07:20:24;;;;;;;;;37.67;34.33;;;;;;;;5001492;28;45535;-56
2023/04/09 07:22:49;;;;;;;;;45.33;36.67;;;;;;;;4973918;28;45717;-55
2023/04/09 07:25:15;;;;;;;;;46.00;38.00;;;;;;;;4995118;28;45590;-54
2023/04/09 07:27:40;;;;;;;;;48.00;38.67;;;;;;;;5000425;28;45451;-55
2023/04/09 07:30:05;;;;;;;;;36.00;32.00;;;;;;;;4997873;28;45943;-57
2023/04/09 07:32:30;;;;;;;;;46.67;36.33;;;;;;;;4992270;28;45417;-56
2023/04/09 07:34:56;;;;;;;;;51.67;39.33;;;;;;;;4996967;28;45257;-56
2023/04/09 07:37:21;;;;;;;;;46.67;36.67;;;;;;;;4993170;28;45347;-56
2023/04/09 07:39:47;;;;;;;;;47.33;39.67;;;;;;;;4997379;28;45934;-56
2023/04/09 07:42:12;;;;;;;;;43.33;37.33;;;;;;;;4998096;28;45501;-56
2023/04/09 07:44:38;;;;;;;;;43.67;34.67;;;;;;;;4998074;28;45434;-57
2023/04/09 07:47:04;;;;;;;;;53.00;39.33;;;;;;;;4994213;28;45433;-56
2023/04/09 07:49:29;;;;;;;;;40.67;34.00;;;;;;;;4994517;28;46128;-57
2023/04/09 07:51:55;;;;;;;;;46.00;39.67;;;;;;;;5001975;28;45309;-56
2023/04/09 07:54:20;;;;;;;;;47.33;39.33;;;;;;;;5001319;28;45319;-56
2023/04/09 07:56:46;;;;;;;;;43.33;36.67;;;;;;;;4998836;28;45264;-56
2023/04/09 07:59:12;;;;;;;;;42.67;35.33;;;;;;;;5001763;28;46105;-55
2023/04/09 08:01:37;;;;;;;;;48.67;40.33;;;;;;;;4995723;28;45426;-55
2023/04/09 08:04:03;;;;;;;;;45.33;37.33;;;;;;;;4992860;28;45377;-55
2023/04/09 08:06:28;;;;;;;;;49.00;41.00;;;;;;;;4996491;28;45301;-55
2023/04/09 08:08:53;;;;;;;;;52.00;39.00;;;;;;;;4999083;28;45447;-56
2023/04/09 08:11:23;;;;;;;;;60.00;44.00;;;;;;;;4991868;28;45305;-55
2023/04/09 08:13:49;;;;;;;;;54.33;44.33;;;;;;;;4997187;28;45209;-58
2023/04/09 08:16:14;;;;;;;;;55.00;43.75;;;;;;;;4997949;28;45512;-56
2023/04/09 08:18:39;;;;;;;;;51.50;42.00;;;;;;;;4994984;28;46226;-54
2023/04/09 08:21:05;;;;;;;;;57.50;45.75;;;;;;;;4998410;28;45214;-56
2023/04/09 08:23:30;;;;;;;;;57.75;44.25;;;;;;;;4997679;28;45264;-55
2023/04/09 08:25:55;;;;;;;;;55.50;43.00;;;;;;;;4998543;28;45356;-55
2023/04/09 08:28:20;;;;;;;;;54.25;42.50;;;;;;;;5005506;28;45491;-55
2023/04/09 08:30:47;;;;;;;;;51.50;41.75;;;;;;;;4992390;28;45444;-55
2023/04/09 08:33:12;;;;;;;;;50.50;42.25;;;;;;;;4980328;28;45387;-57
2023/04/09 08:35:39;;;;;;;;;53.00;42.75;;;;;;;;4995076;28;45426;-58
2023/04/09 08:38:04;;;;;;;;;49.75;42.25;;;;;;;;4995297;28;46147;-57
2023/04/09 08:40:33;;;;;;;;;56.75;45.25;;;;;;;;4985717;28;45345;-56
2023/04/09 08:42:58;;;;;;;;;56.25;46.00;;;;;;;;4998894;28;45640;-56
2023/04/09 08:45:23;;;;;;;;;53.50;44.25;;;;;;;;4998020;28;45508;-57
2023/04/09 08:47:49;;;;;;;;;56.25;44.25;;;;;;;;4979262;28;45451;-57
2023/04/09 08:50:15;;;;;;;;;54.50;42.50;;;;;;;;4999196;28;45329;-57
2023/04/09 08:52:40;;;;;;;;;56.50;44.50;;;;;;;;4999094;28;45381;-56
2023/04/09 08:55:06;;;;;;;;;52.75;43.00;;;;;;;;4998953;28;45589;-57
2023/04/09 08:57:36;;;;;;;;;54.50;41.75;;;;;;;;4999849;28;46214;-57
2023/04/09 09:00:01;;;;;;;;;60.00;44.75;;;;;;;;5000088;28;45242;-57
2023/04/09 09:02:26;;;;;;;;;56.67;43.00;;;;;;;;4979244;28;45400;-58
2023/04/09 09:04:53;;;;;;;;;52.00;40.33;;;;;;;;4998874;28;45270;-58
2023/04/09 09:07:19;;;;;;;;;50.67;42.00;;;;;;;;4999534;28;47157;-58
2023/04/09 09:09:54;;;;;;;;;49.33;40.00;;;;;;;;4987094;28;45314;-58
2023/04/09 09:12:35;;;;;;;;;50.50;41.00;;;;;;;;4996935;28;45238;-58
2023/04/09 09:15:00;;;;;;;;;49.00;40.67;;;;;;;;4998458;28;45503;-58
2023/04/09 09:17:25;;;;;;;;;45.67;38.33;;;;;;;;4979589;28;47920;-59
2023/04/09 09:19:50;;;;;;;;;47.67;39.33;;;;;;;;4995785;28;45242;-58
2023/04/09 09:22:16;;;;;;;;;49.00;39.67;;;;;;;;4997461;28;45363;-59
2023/04/09 09:24:47;;;;;;;;;46.00;37.33;;;;;;;;4998396;28;45798;-59
2023/04/09 09:27:30;;;;;;;;;43.33;36.00;;;;;;;;4997544;28;46376;-59
2023/04/09 09:29:56;;;;;;;;;50.00;40.33;;;;;;;;4997968;28;45322;-60
2023/04/09 09:32:22;;;;;;;;;38.00;34.00;;;;;;;;4997552;28;45424;-60
2023/04/09 09:34:56;;;;;;;;;44.67;37.00;;;;;;;;4979939;28;45496;-59
2023/04/09 09:37:25;;;;;;;;;48.00;39.33;;;;;;;;4995210;28;46890;-58
2023/04/09 09:39:51;;;;;;;;;43.67;35.00;;;;;;;;4997738;28;45384;-58
2023/04/09 09:42:16;;;;;;;;;43.33;34.67;;;;;;;;4997749;28;45774;-59
2023/04/09 09:44:41;;;;;;;;;41.67;35.00;;;;;;;;4996088;28;45581;-58
2023/04/09 09:47:07;;;;;;;;;40.67;33.33;;;;;;;;4999701;28;45380;-59
2023/04/09 09:49:32;;;;;;;;;44.33;36.33;;;;;;;;5001272;28;45413;-59
2023/04/09 09:51:58;;;;;;;;;46.33;36.33;;;;;;;;5001409;28;45354;-59
2023/04/09 09:54:24;;;;;;;;;42.67;36.33;;;;;;;;4997988;28;45400;-58
2023/04/09 09:56:51;;;;;;;;;36.00;32.67;;;;;;;;5000395;28;46324;-58
2023/04/09 09:59:23;;;;;;;;;25.33;24.67;;;;;;;;5000088;28;45489;-58
2023/04/09 10:01:55;;;;;;;;;35.67;31.33;;;;;;;;5000944;28;45637;-59
2023/04/09 10:04:22;;;;;;;;;32.00;29.67;;;;;;;;4982731;28;45344;-59
2023/04/09 10:06:48;;;;;;;;;38.33;30.00;;;;;;;;5000944;28;46440;-59
2023/04/09 10:09:14;;;;;;;;;26.00;25.00;;;;;;;;4995821;28;46454;-59
2023/04/09 10:11:42;;;;;;;;;28.67;28.33;;;;;;;;4998547;28;45317;-59
2023/04/09 10:14:08;;;;;;;;;35.00;30.00;;;;;;;;4999849;28;45464;-59
2023/04/09 10:16:34;;;;;;;;;23.67;20.67;;;;;;;;5000215;28;45522;-58
2023/04/09 10:19:00;;;;;;;;;12.67;10.67;;;;;;;;4998408;28;45336;-59
2023/04/09 10:21:26;;;;;;;;;11.33;11.33;;;;;;;;5000681;28;45233;-59
2023/04/09 10:23:51;;;;;;;;;14.33;12.67;;;;;;;;5000923;28;45530;-59
2023/04/09 10:26:17;;;;;;;;;12.00;12.00;;;;;;;;4982350;28;46809;-58
2023/04/09 10:28:42;;;;;;;;;10.75;10.75;;;;;;;;5000439;28;45423;-59
2023/04/09 10:31:07;;;;;;;;;10.00;10.00;;;;;;;;4997806;28;45402;-59
2023/04/09 10:33:34;;;;;;;;;10.00;9.33;;;;;;;;4999951;28;45415;-58
2023/04/09 10:36:03;;;;;;;;;11.67;11.67;;;;;;;;4999628;28;45344;-59
2023/04/09 10:38:39;;;;;;;;;11.33;11.33;;;;;;;;4999944;28;45418;-58
2023/04/09 10:41:11;;;;;;;;;9.67;6.33;;;;;;;;4999320;28;45435;-59
2023/04/09 10:43:36;;;;;;;;;11.00;11.00;;;;;;;;5000626;28;45591;-59
2023/04/09 10:46:03;;;;;;;;;10.25;9.50;;;;;;;;4980078;28;46132;-59
2023/04/09 10:48:31;;;;;;;;;11.75;11.00;;;;;;;;4992027;28;45426;-59
2023/04/09 10:50:56;;;;;;;;;9.75;9.75;;;;;;;;5000330;28;45341;-60
2023/04/09 10:53:25;;;;;;;;;10.33;8.33;;;;;;;;5000005;28;45281;-59
2023/04/09 10:55:51;;;;;;;;;13.67;10.33;;;;;;;;4999834;28;46036;-59
2023/04/09 10:58:16;;;;;;;;;10.67;10.67;;;;;;;;4998413;28;45462;-59
2023/04/09 11:00:43;;;;;;;;;11.00;10.00;;;;;;;;4988587;28;45290;-59
2023/04/09 11:03:08;;;;;;;;;11.33;11.33;;;;;;;;4995943;28;45638;-59
2023/04/09 11:05:34;;;;;;;;;10.33;10.33;;;;;;;;4999980;28;45618;-59
2023/04/09 11:08:04;;;;;;;;;9.67;8.67;;;;;;;;5000039;28;45292;-59
2023/04/09 11:10:30;;;;;;;;;9.00;9.00;;;;;;;;5000120;28;45443;-59
2023/04/09 11:12:55;;;;;;;;;7.33;7.33;;;;;;;;4989619;28;45291;-59
2023/04/09 11:15:20;;;;;;;;;11.00;9.67;;;;;;;;5006678;28;46217;-59
2023/04/09 11:17:46;;;;;;;;;14.33;10.67;;;;;;;;4998534;28;45316;-59
2023/04/09 11:20:12;;;;;;;;;9.00;8.67;;;;;;;;4999863;28;45371;-59
2023/04/09 11:22:37;;;;;;;;;9.00;9.00;;;;;;;;4997346;28;45402;-59
2023/04/09 11:25:02;;;;;;;;;8.75;8.75;;;;;;;;4999401;28;46084;-59
2023/04/09 11:27:27;;;;;;;;;11.33;10.00;;;;;;;;4999700;28;45377;-59
2023/04/09 11:29:56;;;;;;;;;9.00;9.00;;;;;;;;5000195;28;45356;-59
2023/04/09 11:32:21;;;;;;;;;8.00;8.00;;;;;;;;4998945;28;45792;-58
2023/04/09 11:34:46;;;;;;;;;10.33;8.00;;;;;;;;4999599;28;45388;-59
2023/04/09 11:37:15;;;;;;;;;10.00;10.00;;;;;;;;4996996;28;45353;-59
2023/04/09 11:39:43;;;;;;;;;15.00;12.67;;;;;;;;4999527;28;45659;-59
2023/04/09 11:42:12;;;;;;;;;11.67;11.67;;;;;;;;4997586;28;45495;-59
2023/04/09 11:44:38;;;;;;;;;15.67;15.00;;;;;;;;4999554;28;45423;-59
2023/04/09 11:47:03;;;;;;;;;15.33;15.33;;;;;;;;4998648;28;45238;-59
2023/04/09 11:49:28;;;;;;;;;11.00;11.00;;;;;;;;4999774;28;45211;-59
2023/04/09 11:51:54;;;;;;;;;12.00;10.00;;;;;;;;4996653;28;45643;-59
2023/04/09 11:54:19;;;;;;;;;9.00;9.00;;;;;;;;4998458;28;46238;-59
2023/04/09 11:56:45;;;;;;;;;9.67;9.67;;;;;;;;4987017;28;45293;-59
2023/04/09 11:59:13;;;;;;;;;12.33;12.00;;;;;;;;4999067;28;45337;-59
2023/04/09 12:01:38;;;;;;;;;11.00;10.00;;;;;;;;4999011;28;45515;-59
2023/04/09 12:04:05;;;;;;;;;11.00;11.00;;;;;;;;4981018;28;46200;-59
2023/04/09 12:06:30;;;;;;;;;12.67;12.67;;;;;;;;4999393;28;45352;-59
2023/04/09 12:08:56;;;;;;;;;15.00;13.00;;;;;;;;4996009;28;45321;-59
2023/04/09 12:11:28;;;;;;;;;14.33;14.33;;;;;;;;4998599;28;45458;-59
2023/04/09 12:14:03;;;;;;;;;14.33;12.00;;;;;;;;4998492;28;47023;-59
2023/04/09 12:16:31;;;;;;;;;16.33;15.67;;;;;;;;4999050;28;45472;-59
2023/04/09 12:19:04;;;;;;;;;14.00;13.33;;;;;;;;4998868;28;45415;-59
2023/04/09 12:21:46;;;;;;;;;14.67;14.67;;;;;;;;4999260;28;45414;-59
2023/04/09 12:24:12;;;;;;;;;12.67;12.67;;;;;;;;4996043;28;46223;-58
2023/04/09 12:26:37;;;;;;;;;14.33;14.33;;;;;;;;4998595;28;45368;-58
2023/04/09 12:29:02;;;;;;;;;17.33;15.33;;;;;;;;4998476;28;45436;-59
2023/04/09 12:31:27;;;;;;;;;14.67;14.67;;;;;;;;4998923;28;45404;-58
2023/04/09 12:33:52;;;;;;;;;14.00;12.00;;;;;;;;4981149;28;47210;-58
2023/04/09 12:36:18;;;;;;;;;18.67;16.67;;;;;;;;4998500;28;45268;-58
2023/04/09 12:38:43;;;;;;;;;12.67;12.00;;;;;;;;4998982;28;45407;-58
2023/04/09 12:41:08;;;;;;;;;17.33;16.00;;;;;;;;4993990;28;45396;-57
2023/04/09 12:43:33;;;;;;;;;13.67;13.67;;;;;;;;4996427;28;46236;-58
2023/04/09 12:45:59;;;;;;;;;16.33;16.00;;;;;;;;4998286;28;45348;-58
2023/04/09 12:48:24;;;;;;;;;13.00;11.33;;;;;;;;4998106;28;45388;-58
2023/04/09 12:50:49;;;;;;;;;14.00;14.00;;;;;;;;4998672;28;45377;-58
2023/04/09 12:53:15;;;;;;;;;13.33;12.67;;;;;;;;4998035;28;46125;-57
2023/04/09 12:55:40;;;;;;;;;15.67;13.67;;;;;;;;4996603;28;45522;-58
2023/04/09 12:58:05;;;;;;;;;13.00;11.33;;;;;;;;4998197;28;45308;-57
2023/04/09 13:00:32;;;;;;;;;12.33;11.33;;;;;;;;4996518;28;45482;-57
2023/04/09 13:02:57;;;;;;;;;15.33;15.33;;;;;;;;4998127;28;45452;-57
2023/04/09 13:05:22;;;;;;;;;14.00;13.33;;;;;;;;4997980;28;45251;-57
2023/04/09 13:07:47;;;;;;;;;13.67;13.67;;;;;;;;4998712;28;45390;-57
2023/04/09 13:10:13;;;;;;;;;13.00;13.00;;;;;;;;4993827;28;45565;-57
2023/04/09 13:12:38;;;;;;;;;10.67;10.67;;;;;;;;4996178;28;46133;-57
2023/04/09 13:15:03;;;;;;;;;12.67;12.67;;;;;;;;4998009;28;45218;-57
2023/04/09 13:17:28;;;;;;;;;13.00;13.00;;;;;;;;4997786;28;45765;-57
2023/04/09 13:19:53;;;;;;;;;13.67;11.00;;;;;;;;4997545;28;45650;-57
2023/04/09 13:22:19;;;;;;;;;12.67;12.67;;;;;;;;4983552;28;46017;-57
2023/04/09 13:24:44;;;;;;;;;13.00;11.67;;;;;;;;5001738;28;45637;-57
2023/04/09 13:27:09;;;;;;;;;15.67;12.00;;;;;;;;4997709;28;45608;-57
2023/04/09 13:29:35;;;;;;;;;14.00;12.67;;;;;;;;5001517;28;45295;-57
2023/04/09 13:32:05;;;;;;;;;13.67;12.67;;;;;;;;5000924;28;45273;-57
2023/04/09 13:34:31;;;;;;;;;16.33;16.33;;;;;;;;5001531;28;45384;-57
2023/04/09 13:36:56;;;;;;;;;12.67;12.67;;;;;;;;5001537;28;45742;-57
2023/04/09 13:39:21;;;;;;;;;13.67;13.67;;;;;;;;5000941;28;45392;-57
2023/04/09 13:41:46;;;;;;;;;15.67;15.00;;;;;;;;5001287;28;46331;-57
2023/04/09 13:44:11;;;;;;;;;15.00;13.33;;;;;;;;4999041;28;45231;-57
2023/04/09 13:46:37;;;;;;;;;17.00;17.00;;;;;;;;4993148;28;45482;-57
2023/04/09 13:49:02;;;;;;;;;16.00;13.67;;;;;;;;5001186;28;45391;-57
2023/04/09 13:51:28;;;;;;;;;12.00;11.00;;;;;;;;5000875;28;46108;-57
2023/04/09 13:53:54;;;;;;;;;13.33;13.00;;;;;;;;5001451;28;45384;-57
2023/04/09 13:56:19;;;;;;;;;13.33;12.33;;;;;;;;5000701;28;45614;-57
2023/04/09 13:58:44;;;;;;;;;15.67;13.00;;;;;;;;4983739;28;45527;-57
2023/04/09 14:01:10;;;;;;;;;15.67;12.33;;;;;;;;4998595;28;48272;-57
2023/04/09 14:03:37;;;;;;;;;12.67;11.00;;;;;;;;4999775;28;45282;-58
2023/04/09 14:06:03;;;;;;;;;13.00;12.00;;;;;;;;5000820;28;45467;-57
2023/04/09 14:08:28;;;;;;;;;15.33;14.00;;;;;;;;5001037;28;45494;-58
2023/04/09 14:10:55;;;;;;;;;14.00;12.00;;;;;;;;5000915;28;45265;-57
2023/04/09 14:13:20;;;;;;;;;11.33;11.33;;;;;;;;5000503;28;45357;-58
2023/04/09 14:15:46;;;;;;;;;15.67;12.67;;;;;;;;5001114;28;45451;-57
2023/04/09 14:18:11;;;;;;;;;11.00;11.00;;;;;;;;4998094;28;45549;-57
2023/04/09 14:20:37;;;;;;;;;13.00;11.33;;;;;;;;5000996;28;46083;-57
2023/04/09 14:23:02;;;;;;;;;13.33;12.00;;;;;;;;5000203;28;45289;-57
2023/04/09 14:25:27;;;;;;;;;13.33;12.33;;;;;;;;5000713;28;45281;-57
2023/04/09 14:27:52;;;;;;;;;13.00;13.00;;;;;;;;5000983;28;45432;-57
2023/04/09 14:30:18;;;;;;;;;14.33;14.33;;;;;;;;4999899;28;45594;-57
2023/04/09 14:32:43;;;;;;;;;13.33;11.33;;;;;;;;4999724;28;45423;-57
2023/04/09 14:35:08;;;;;;;;;13.00;11.67;;;;;;;;4997948;28;45216;-57
2023/04/09 14:37:33;;;;;;;;;11.67;11.67;;;;;;;;5000750;28;45417;-57
2023/04/09 14:39:59;;;;;;;;;13.67;12.00;;;;;;;;4982703;28;45884;-57
2023/04/09 14:42:24;;;;;;;;;15.67;15.67;;;;;;;;5000235;28;45329;-57
2023/04/09 14:44:49;;;;;;;;;13.00;13.00;;;;;;;;5000300;28;45367;-57
2023/04/09 14:47:14;;;;;;;;;15.33;13.67;;;;;;;;4999697;28;45384;-56
2023/04/09 14:49:40;;;;;;;;;15.67;12.33;;;;;;;;5000187;28;46285;-57
2023/04/09 14:52:05;;;;;;;;;12.33;12.33;;;;;;;;4994979;28;45469;-57
2023/04/09 14:54:32;;;;;;;;;12.00;11.00;;;;;;;;5000208;28;45316;-57
2023/04/09 14:56:57;;;;;;;;;11.67;10.67;;;;;;;;5000373;28;45602;-57
2023/04/09 14:59:23;;;;;;;;;13.67;13.67;;;;;;;;4997394;28;46867;-56
2023/04/09 15:01:48;;;;;;;;;10.00;10.00;;;;;;;;4999469;28;45509;-57
2023/04/09 15:04:13;;;;;;;;;11.33;10.33;;;;;;;;4999806;28;45292;-57
2023/04/09 15:06:38;;;;;;;;;11.00;10.67;;;;;;;;4997889;28;45399;-57
2023/04/09 15:09:04;;;;;;;;;10.33;8.33;;;;;;;;4999288;28;45447;-57
2023/04/09 15:11:29;;;;;;;;;10.33;10.33;;;;;;;;4999428;28;45333;-58
2023/04/09 15:13:56;;;;;;;;;10.00;10.00;;;;;;;;4997829;28;45529;-58
2023/04/09 15:16:22;;;;;;;;;10.00;9.33;;;;;;;;4999170;28;45420;-58
2023/04/09 15:18:50;;;;;;;;;10.00;10.00;;;;;;;;4999478;28;45475;-58
2023/04/09 15:21:15;;;;;;;;;9.33;9.00;;;;;;;;4999653;28;45314;-57
2023/04/09 15:23:41;;;;;;;;;9.67;9.67;;;;;;;;4999773;28;45581;-58
2023/04/09 15:26:06;;;;;;;;;8.67;8.33;;;;;;;;4999773;28;45450;-57
2023/04/09 15:28:31;;;;;;;;;3.00;3.00;;;;;;;;4999737;28;46099;-57
2023/04/09 15:30:56;;;;;;;;;12.00;11.33;;;;;;;;4998117;28;45469;-58
2023/04/09 15:33:21;;;;;;;;;10.00;9.00;;;;;;;;4998867;28;45343;-57
2023/04/09 15:35:46;;;;;;;;;9.00;9.00;;;;;;;;5000020;28;45293;-57
2023/04/09 15:38:12;;;;;;;;;11.67;10.00;;;;;;;;4999059;28;46264;-57
2023/04/09 15:40:38;;;;;;;;;9.00;9.00;;;;;;;;4999907;28;45285;-57
2023/04/09 15:43:04;;;;;;;;;8.00;8.00;;;;;;;;4999316;28;45304;-57
2023/04/09 15:45:29;;;;;;;;;10.33;10.33;;;;;;;;4997990;28;46274;-58
2023/04/09 15:47:54;;;;;;;;;7.00;6.00;;;;;;;;4998625;28;45325;-57
2023/04/09 15:50:20;;;;;;;;;12.33;12.00;;;;;;;;4998849;28;45412;-57
2023/04/09 15:52:45;;;;;;;;;8.33;8.00;;;;;;;;4999799;28;45685;-57
2023/04/09 15:55:10;;;;;;;;;10.00;10.00;;;;;;;;4999358;28;45510;-57
2023/04/09 15:57:37;;;;;;;;;11.67;11.67;;;;;;;;4999464;28;45277;-57
2023/04/09 16:00:02;;;;;;;;;10.67;10.67;;;;;;;;4995722;28;45413;-57
2023/04/09 16:02:27;;;;;;;;;10.33;10.33;;;;;;;;4997062;28;45368;-58
2023/04/09 16:04:52;;;;;;;;;13.00;10.33;;;;;;;;4998899;28;45687;-57
2023/04/09 16:07:18;;;;;;;;;13.67;13.33;;;;;;;;4998727;28;46068;-58
2023/04/09 16:09:45;;;;;;;;;9.67;9.67;;;;;;;;4999330;28;45190;-57
2023/04/09 16:12:10;;;;;;;;;11.67;11.67;;;;;;;;4998534;28;45402;-57
2023/04/09 16:14:35;;;;;;;;;11.33;11.33;;;;;;;;4999328;28;45465;-57
2023/04/09 16:17:01;;;;;;;;;10.33;10.33;;;;;;;;4997306;28;46090;-57
2023/04/09 16:19:26;;;;;;;;;13.00;11.33;;;;;;;;4980919;28;45482;-57
2023/04/09 16:21:52;;;;;;;;;14.00;12.33;;;;;;;;4998822;28;45380;-57
2023/04/09 16:24:17;;;;;;;;;10.33;10.33;;;;;;;;4996758;28;45458;-57
2023/04/09 16:26:43;;;;;;;;;13.00;11.00;;;;;;;;4998265;28;45388;-57
2023/04/09 16:29:09;;;;;;;;;12.00;10.00;;;;;;;;4998594;28;45289;-57
2023/04/09 16:31:34;;;;;;;;;8.67;8.67;;;;;;;;4998350;28;45334;-57
2023/04/09 16:34:00;;;;;;;;;11.00;11.00;;;;;;;;4996533;28;45525;-57
2023/04/09 16:36:25;;;;;;;;;12.00;12.00;;;;;;;;4998342;28;46265;-57
2023/04/09 16:38:50;;;;;;;;;10.33;10.00;;;;;;;;4998501;28;45525;-57
2023/04/09 16:41:16;;;;;;;;;12.67;11.67;;;;;;;;4998708;28;45293;-57
2023/04/09 16:43:41;;;;;;;;;12.00;11.33;;;;;;;;4996644;28;45657;-57
2023/04/09 16:46:06;;;;;;;;;11.33;11.00;;;;;;;;4998207;28;46365;-57
2023/04/09 16:48:32;;;;;;;;;14.00;12.00;;;;;;;;4998452;28;45391;-57
2023/04/09 16:50:57;;;;;;;;;11.33;9.33;;;;;;;;4996878;28;45345;-58
2023/04/09 16:53:23;;;;;;;;;10.00;10.00;;;;;;;;4991409;28;45511;-58
2023/04/09 16:55:48;;;;;;;;;8.33;8.33;;;;;;;;4998049;28;45443;-60
2023/04/09 16:58:14;;;;;;;;;10.67;10.00;;;;;;;;5000290;28;45734;-59
2023/04/09 17:00:39;;;;;;;;;10.67;10.33;;;;;;;;5005397;28;45280;-59
2023/04/09 17:03:04;;;;;;;;;9.33;9.33;;;;;;;;4990599;28;45670;-63
2023/04/09 17:05:30;;;;;;;;;11.00;11.00;;;;;;;;4997973;28;45291;-67
2023/04/09 17:07:55;;;;;;;;;11.00;10.33;;;;;;;;5003604;28;45407;-60
2023/04/09 17:10:20;;;;;;;;;14.33;12.67;;;;;;;;5001590;28;45224;-63
2023/04/09 17:12:46;;;;;;;;;11.33;11.33;;;;;;;;4990189;28;45404;-63
2023/04/09 17:15:11;;;;;;;;;13.67;12.00;;;;;;;;4992029;28;46038;-62
2023/04/09 17:17:36;;;;;;;;;13.33;12.33;;;;;;;;5001579;28;45675;-63
2023/04/09 17:20:03;;;;;;;;;12.00;10.33;;;;;;;;4991574;28;45514;-63
2023/04/09 17:22:28;;;;;;;;;11.33;10.33;;;;;;;;4990114;28;45571;-63
2023/04/09 17:24:53;;;;;;;;;12.33;10.67;;;;;;;;4990759;28;45552;-59
2023/04/09 17:27:18;;;;;;;;;12.00;12.00;;;;;;;;4995925;28;45301;-59
2023/04/09 17:29:44;;;;;;;;;10.67;9.33;;;;;;;;4992310;28;45316;-59
2023/04/09 17:32:09;;;;;;;;;10.00;9.00;;;;;;;;5000923;28;45800;-59
2023/04/09 17:34:34;;;;;;;;;12.00;10.33;;;;;;;;4996108;28;45366;-59
2023/04/09 17:36:59;;;;;;;;;9.00;9.00;;;;;;;;4990435;28;45373;-59
2023/04/09 17:39:25;;;;;;;;;12.33;11.00;;;;;;;;5003810;28;45514;-60
2023/04/09 17:41:52;;;;;;;;;12.00;10.00;;;;;;;;5000163;28;45474;-63
2023/04/09 17:44:17;;;;;;;;;10.33;10.33;;;;;;;;5007662;28;46302;-63
2023/04/09 17:46:42;;;;;;;;;12.33;10.00;;;;;;;;5000890;28;45166;-63
2023/04/09 17:49:08;;;;;;;;;11.00;11.00;;;;;;;;4993831;28;45345;-63
2023/04/09 17:51:33;;;;;;;;;12.33;10.33;;;;;;;;4995841;28;45539;-62
2023/04/09 17:53:59;;;;;;;;;11.33;8.67;;;;;;;;5002769;28;46040;-63
2023/04/09 17:56:24;;;;;;;;;9.00;9.00;;;;;;;;5000313;28;45216;-63
2023/04/09 17:58:49;;;;;;;;;10.00;10.00;;;;;;;;5003696;28;45449;-62
2023/04/09 18:01:14;;;;;;;;;8.00;8.00;;;;;;;;4975115;28;45395;-63
2023/04/09 18:03:41;;;;;;;;;9.33;9.00;;;;;;;;5003981;28;46106;-63
2023/04/09 18:06:06;;;;;;;;;9.67;9.00;;;;;;;;4999268;28;45301;-62
2023/04/09 18:08:31;;;;;;;;;12.33;10.33;;;;;;;;4997085;28;45568;-63
2023/04/09 18:10:57;;;;;;;;;12.33;10.67;;;;;;;;4997917;28;45357;-60
2023/04/09 18:13:22;;;;;;;;;12.00;11.67;;;;;;;;4993788;28;46264;-59
2023/04/09 18:15:48;;;;;;;;;11.67;10.00;;;;;;;;4997038;28;45415;-59
2023/04/09 18:18:13;;;;;;;;;9.00;9.00;;;;;;;;4971105;28;45523;-59
2023/04/09 18:20:38;;;;;;;;;11.00;10.33;;;;;;;;4997175;28;45424;-59
2023/04/09 18:23:03;;;;;;;;;12.67;11.00;;;;;;;;4975628;28;46522;-59
2023/04/09 18:25:29;;;;;;;;;10.00;10.00;;;;;;;;4994184;28;45471;-61
2023/04/09 18:27:54;;;;;;;;;11.00;11.00;;;;;;;;4993305;28;45654;-61
2023/04/09 18:30:19;;;;;;;;;11.00;11.00;;;;;;;;4985089;28;45365;-63
2023/04/09 18:32:46;;;;;;;;;12.33;11.33;;;;;;;;4999014;28;46189;-64
2023/04/09 18:35:12;;;;;;;;;10.33;9.00;;;;;;;;4977219;28;45413;-64
2023/04/09 18:37:37;;;;;;;;;12.00;12.00;;;;;;;;4994981;28;46741;-64
2023/04/09 18:40:02;;;;;;;;;12.67;12.67;;;;;;;;4978320;28;45462;-64
2023/04/09 18:42:28;;;;;;;;;13.33;13.33;;;;;;;;4978100;28;47038;-64
2023/04/09 18:44:53;;;;;;;;;12.00;12.00;;;;;;;;4974279;28;46007;-63
2023/04/09 18:47:18;;;;;;;;;12.67;9.67;;;;;;;;4992470;28;45229;-63
2023/04/09 18:49:43;;;;;;;;;11.33;11.00;;;;;;;;5011225;28;45299;-61
2023/04/09 18:52:09;;;;;;;;;15.67;13.67;;;;;;;;4996707;28;45389;-63
2023/04/09 18:54:35;;;;;;;;;13.33;12.00;;;;;;;;4990380;28;45292;-64
2023/04/09 18:57:02;;;;;;;;;12.33;10.33;;;;;;;;4997100;28;45435;-62
2023/04/09 18:59:28;;;;;;;;;8.33;8.33;;;;;;;;4995232;28;45826;-63
2023/04/09 19:01:54;;;;;;;;;12.67;11.33;;;;;;;;4993977;28;46133;-62
2023/04/09 19:04:19;;;;;;;;;13.00;13.00;;;;;;;;5000106;28;45526;-62
2023/04/09 19:06:46;;;;;;;;;16.33;12.67;;;;;;;;4999564;28;45380;-60
2023/04/09 19:09:11;;;;;;;;;12.33;10.33;;;;;;;;4998042;28;45395;-60
2023/04/09 19:11:36;;;;;;;;;12.00;12.00;;;;;;;;4994763;28;45705;-60